createdAt,value
2022-07-25T00:01:54.888Z,23.85
2022-07-25T00:06:51.146Z,23.53
2022-07-25T00:11:46.642Z,23.43
2022-07-25T00:16:41.318Z,23.92
2022-07-25T00:21:34.674Z,23.65
2022-07-25T00:26:28.122Z,23.73
2022-07-25T00:31:23.065Z,23.92
2022-07-25T00:36:16.402Z,23.85
2022-07-25T00:41:09.777Z,23.44
2022-07-25T00:46:03.282Z,23.44
2022-07-25T00:50:58.401Z,23.33
2022-07-25T00:55:51.834Z,23.08
2022-07-25T01:00:45.250Z,23.13
2022-07-25T01:05:39.052Z,24.03
2022-07-25T01:10:34.568Z,24.03
2022-07-25T01:15:28.764Z,23.54
2022-07-25T01:20:24.710Z,23.28
2022-07-25T01:25:19.648Z,24.10
2022-07-25T01:30:17.793Z,24.09
2022-07-25T01:35:13.229Z,23.24
2022-07-25T01:40:09.666Z,23.69
2022-07-25T01:45:05.932Z,24.05
2022-07-25T01:50:02.294Z,23.85
2022-07-25T01:54:55.664Z,23.65
2022-07-25T01:59:51.367Z,23.90
2022-07-25T02:04:45.088Z,23.32
2022-07-25T02:09:40.220Z,23.25
2022-07-25T02:14:33.525Z,23.93
2022-07-25T02:19:28.245Z,24.06
2022-07-25T02:24:21.648Z,23.58
2022-07-25T02:29:14.924Z,23.89
2022-07-25T02:34:08.711Z,23.94
2022-07-25T02:39:04.074Z,24.09
2022-07-25T02:43:57.550Z,23.30
2022-07-25T02:48:51.314Z,24.02
2022-07-25T02:53:57.146Z,24.04
2022-07-25T02:58:52.830Z,23.75
2022-07-25T03:03:46.404Z,24.11
2022-07-25T03:08:43.015Z,23.31
2022-07-25T03:13:36.506Z,24.10
2022-07-25T03:18:31.483Z,24.12
2022-07-25T03:23:30.076Z,24.02
2022-07-25T03:28:23.416Z,24.14
2022-07-25T03:33:17.014Z,23.33
2022-07-25T03:38:12.533Z,23.92
2022-07-25T03:43:06.334Z,23.82
2022-07-25T03:48:00.743Z,23.34
2022-07-25T03:52:54.264Z,23.38
2022-07-25T03:57:51.682Z,24.16
2022-07-25T04:02:45.593Z,23.95
2022-07-25T04:07:39.836Z,23.45
2022-07-25T04:12:33.396Z,24.41
2022-07-25T04:17:28.165Z,24.38
2022-07-25T04:22:21.380Z,24.58
2022-07-25T04:27:14.748Z,24.44
2022-07-25T04:32:08.660Z,23.78
2022-07-25T04:37:03.491Z,24.83
2022-07-25T04:41:58.895Z,24.84
2022-07-25T04:46:55.019Z,24.53
2022-07-25T04:51:51.637Z,25.04
2022-07-25T04:56:46.481Z,25.17
2022-07-25T05:01:39.781Z,25.33
2022-07-25T05:06:33.369Z,25.51
2022-07-25T05:11:26.812Z,25.40
2022-07-25T05:16:21.562Z,25.83
2022-07-25T05:21:15.028Z,25.66
2022-07-25T05:26:08.350Z,26.12
2022-07-25T05:31:01.858Z,26.12
2022-07-25T05:35:56.530Z,25.81
2022-07-25T05:40:52.381Z,26.18
2022-07-25T05:45:47.444Z,26.37
2022-07-25T05:50:40.714Z,26.27
2022-07-25T05:55:40.705Z,26.03
2022-07-25T06:00:34.590Z,26.35
2022-07-25T06:05:28.128Z,26.06
2022-07-25T06:10:22.413Z,26.77
2022-07-25T06:15:23.100Z,26.76
2022-07-25T06:20:20.544Z,26.91
2022-07-25T06:25:14.225Z,26.60
2022-07-25T06:30:19.205Z,26.25
2022-07-25T06:35:17.622Z,26.87
2022-07-25T06:40:11.654Z,26.80
2022-07-25T06:45:05.587Z,26.07
2022-07-25T06:49:58.879Z,25.97
2022-07-25T06:54:53.488Z,26.71
2022-07-25T06:59:47.200Z,26.59
2022-07-25T07:04:40.831Z,26.51
2022-07-25T07:09:34.053Z,26.46
2022-07-25T07:14:34.085Z,26.46
2022-07-25T07:19:27.385Z,25.92
2022-07-25T07:24:24.446Z,26.48
2022-07-25T07:29:19.183Z,26.49
2022-07-25T07:34:14.465Z,26.37
2022-07-25T07:39:10.026Z,26.40
2022-07-25T07:44:03.457Z,25.91
2022-07-25T07:48:56.975Z,26.89
2022-07-25T07:54:09.395Z,26.87
2022-07-25T07:59:05.469Z,27.24
2022-07-25T08:03:59.008Z,27.53
2022-07-25T08:08:55.662Z,27.15
2022-07-25T08:13:49.035Z,28.48
2022-07-25T08:18:42.415Z,29.01
2022-07-25T08:23:38.959Z,29.21
2022-07-25T08:28:33.888Z,30.51
2022-07-25T08:33:28.480Z,30.88
2022-07-25T08:38:22.737Z,31.12
2022-07-25T08:43:20.521Z,31.06
2022-07-25T08:48:18.046Z,30.72
2022-07-25T08:53:31.994Z,30.38
2022-07-25T08:58:31.641Z,30.42
2022-07-25T09:03:30.861Z,31.16
2022-07-25T09:08:24.299Z,31.31
2022-07-25T09:13:18.659Z,31.45
2022-07-25T09:18:14.664Z,31.89
2022-07-25T09:23:11.280Z,32.99
2022-07-25T09:28:17.360Z,32.64
2022-07-25T09:33:10.681Z,33.36
2022-07-25T09:38:13.239Z,32.80
2022-07-25T09:43:06.905Z,32.94
2022-07-25T09:48:02.106Z,33.41
2022-07-25T09:52:57.095Z,33.53
2022-07-25T09:57:56.653Z,33.11
2022-07-25T10:02:57.357Z,32.96
2022-07-25T10:08:22.855Z,33.70
2022-07-25T10:13:32.211Z,33.85
2022-07-25T10:18:28.900Z,34.24
2022-07-25T10:23:24.674Z,34.37
2022-07-25T10:28:22.262Z,34.39
2022-07-25T10:33:18.816Z,34.75
2022-07-25T10:38:12.251Z,34.93
2022-07-25T10:43:10.002Z,34.85
2022-07-25T10:48:08.501Z,34.41
2022-07-25T10:53:07.888Z,34.17
2022-07-25T10:58:17.032Z,34.54
2022-07-25T11:03:18.099Z,35.11
2022-07-25T11:08:21.612Z,35.97
2022-07-25T11:13:16.189Z,36.91
2022-07-25T11:18:09.422Z,37.34
2022-07-25T11:23:04.149Z,37.35
2022-07-25T11:27:59.243Z,37.09
2022-07-25T11:32:56.218Z,36.83
2022-07-25T11:37:51.562Z,36.40
2022-07-25T11:42:48.130Z,36.48
2022-07-25T11:47:41.423Z,37.18
2022-07-25T11:52:36.772Z,37.80
2022-07-25T11:57:32.833Z,38.36
2022-07-25T12:02:31.234Z,39.56
2022-07-25T12:07:45.916Z,40.60
2022-07-25T12:12:53.059Z,40.64
2022-07-25T12:17:48.586Z,40.45
2022-07-25T12:22:42.291Z,40.59
2022-07-25T12:27:35.649Z,40.63
2022-07-25T12:32:28.970Z,40.38
2022-07-25T12:37:23.630Z,40.44
2022-07-25T12:42:17.260Z,40.37
2022-07-25T12:47:10.752Z,40.33
2022-07-25T12:52:03.938Z,39.71
2022-07-25T12:56:58.757Z,39.39
2022-07-25T13:01:52.161Z,39.25
2022-07-25T13:06:45.549Z,40.40
2022-07-25T13:11:38.735Z,40.80
2022-07-25T13:16:34.728Z,41.34
2022-07-25T13:21:27.943Z,41.75
2022-07-25T13:26:21.274Z,41.98
2022-07-25T13:31:18.275Z,41.66
2022-07-25T13:36:13.115Z,41.85
2022-07-25T13:41:06.444Z,41.32
2022-07-25T13:45:59.951Z,39.72
2022-07-25T13:50:53.300Z,39.40
2022-07-25T13:55:48.378Z,39.27
2022-07-25T14:00:41.917Z,39.84
2022-07-25T14:05:35.492Z,40.37
2022-07-25T14:10:29.284Z,40.95
2022-07-25T14:15:24.461Z,41.40
2022-07-25T14:20:17.775Z,41.26
2022-07-25T14:25:12.115Z,41.55
2022-07-25T14:30:06.208Z,40.99
2022-07-25T14:35:02.045Z,40.29
2022-07-25T14:39:55.523Z,38.99
2022-07-25T14:44:48.870Z,38.12
2022-07-25T14:50:00.578Z,36.69
2022-07-25T14:54:59.848Z,36.38
2022-07-25T15:00:06.251Z,35.22
2022-07-25T15:05:01.054Z,35.55
2022-07-25T15:09:57.895Z,35.14
2022-07-25T15:14:55.025Z,34.67
2022-07-25T15:19:53.332Z,34.13
2022-07-25T15:25:21.396Z,34.29
2022-07-25T15:30:07.823Z,34.22
2022-07-25T15:35:03.237Z,34.01
2022-07-25T15:39:56.513Z,33.89
2022-07-25T15:45:03.848Z,33.75
2022-07-25T15:50:05.815Z,33.48
2022-07-25T15:54:59.180Z,33.47
2022-07-25T15:59:52.472Z,33.36
2022-07-25T16:04:48.594Z,33.28
2022-07-25T16:09:45.770Z,33.20
2022-07-25T16:14:39.596Z,33.09
2022-07-25T16:19:33.199Z,33.05
2022-07-25T16:24:26.801Z,32.82
2022-07-25T16:29:30.043Z,32.05
2022-07-25T16:34:28.685Z,32.87
2022-07-25T16:39:23.324Z,32.78
2022-07-25T16:44:16.715Z,32.71
2022-07-25T16:49:11.720Z,32.66
2022-07-25T16:54:05.742Z,32.48
2022-07-25T16:59:01.746Z,32.17
2022-07-25T17:03:56.408Z,32.15
2022-07-25T17:08:51.346Z,32.14
2022-07-25T17:13:44.840Z,32.34
2022-07-25T17:18:38.658Z,32.16
2022-07-25T17:23:32.155Z,32.17
2022-07-25T17:28:27.342Z,31.79
2022-07-25T17:33:24.111Z,31.31
2022-07-25T17:38:20.049Z,31.62
2022-07-25T17:43:15.660Z,31.53
2022-07-25T17:48:10.422Z,31.56
2022-07-25T17:53:04.819Z,31.61
2022-07-25T17:57:59.781Z,31.35
2022-07-25T18:02:53.283Z,31.33
2022-07-25T18:07:49.625Z,31.20
2022-07-25T18:12:43.219Z,30.91
2022-07-25T18:17:36.723Z,30.87
2022-07-25T18:22:32.974Z,30.34
2022-07-25T18:27:35.896Z,30.28
2022-07-25T18:32:29.365Z,30.39
2022-07-25T18:38:17.981Z,29.65
2022-07-25T18:43:16.272Z,30.35
2022-07-25T18:48:11.442Z,30.26
2022-07-25T18:53:05.747Z,29.81
2022-07-25T18:58:00.171Z,30.08
2022-07-25T19:02:55.031Z,30.01
2022-07-25T19:07:49.522Z,29.65
2022-07-25T19:12:52.809Z,29.28
2022-07-25T19:17:46.185Z,29.55
2022-07-25T19:22:42.754Z,29.75
2022-07-25T19:27:36.197Z,29.66
2022-07-25T19:32:29.383Z,29.82
2022-07-25T19:37:22.741Z,29.78
2022-07-25T19:42:17.509Z,29.75
2022-07-25T19:47:11.983Z,29.70
2022-07-25T19:52:06.464Z,29.53
2022-07-25T19:57:02.653Z,29.53
2022-07-25T20:01:57.242Z,29.51
2022-07-25T20:06:50.806Z,29.13
2022-07-25T20:11:44.414Z,28.99
2022-07-25T20:16:42.388Z,28.62
2022-07-25T20:21:46.627Z,28.16
2022-07-25T20:26:40.015Z,28.09
2022-07-25T20:31:33.244Z,27.82
2022-07-25T20:36:26.532Z,27.77
2022-07-25T20:41:24.498Z,27.68
2022-07-25T20:46:17.873Z,27.45
2022-07-25T20:51:13.089Z,27.33
2022-07-25T20:56:17.186Z,26.94
2022-07-25T21:01:15.796Z,27.05
2022-07-25T21:06:09.290Z,26.28
2022-07-25T21:11:02.533Z,26.92
2022-07-25T21:15:55.717Z,26.52
2022-07-25T21:20:50.774Z,26.66
2022-07-25T21:25:44.160Z,26.59
2022-07-25T21:30:41.261Z,26.78
2022-07-25T21:35:49.361Z,26.76
2022-07-25T21:40:48.292Z,26.70
2022-07-25T21:45:41.564Z,26.34
2022-07-25T21:50:42.193Z,26.78
2022-07-25T21:55:37.887Z,26.80
2022-07-25T22:00:33.499Z,26.71
2022-07-25T22:05:27.093Z,26.51
2022-07-25T22:10:21.642Z,26.92
2022-07-25T22:15:15.761Z,27.09
2022-07-25T22:20:12.182Z,27.23
2022-07-25T22:25:06.214Z,27.50
2022-07-25T22:29:59.464Z,27.95
2022-07-25T22:34:52.653Z,28.02
2022-07-25T22:39:49.108Z,27.79
2022-07-25T22:44:42.318Z,27.85
2022-07-25T22:49:35.576Z,27.43
2022-07-25T22:54:28.823Z,27.88
2022-07-25T22:59:23.750Z,27.66
2022-07-25T23:04:17.065Z,27.84
2022-07-25T23:09:10.996Z,27.40
2022-07-25T23:14:04.634Z,27.77
2022-07-25T23:18:59.273Z,27.70
2022-07-25T23:23:55.339Z,27.66
2022-07-25T23:28:48.666Z,27.59
2022-07-25T23:33:42.913Z,27.54
2022-07-25T23:38:38.767Z,27.53
2022-07-25T23:43:44.649Z,27.59
2022-07-25T23:48:45.465Z,27.41
2022-07-25T23:53:40.040Z,27.40
2022-07-25T23:58:33.257Z,27.17
